M I D A S
Marine Information and Data Acquisition System
Tripno 2274 of the Zeeleeuw from 2012-03-09 08:22:30 to 2012-03-09 14:03:56
Back to CruiseResearch ActivitiesStationsMapUnderway DataData graphs

EquipmentUnitsComment
TimeDGPSUTC
LatitudeDGPSDM.mWGS84
LongitudeDGPSDM.mWGS84
TemperatureSBE03/SBE38deg celciusITS90
ConductivitySBE21S/mITS90
SalinitySBE21 Practical Salinity Units
ChlorophylAChelsea fluorimeterg/lCalibrated in Aceton
Missing or incorrect values are displayed as -999
Sea surface data collected by the RV Zeeleeuw from 2012-03-09 07:51:19 to 2012-03-09 14:16:54
Time Latitude Longitude Temperature Conductivity Salinity ChlorophylA
2012-03-09 07:52:24 51°13.638 2°56.015 13.3956 3.685594 25.749783 -2.458615
2012-03-09 07:53:24 51°13.636 2°56.018 13.3862 3.685594 25.751175 -2.458615
2012-03-09 07:54:24 51°13.635 2°56.019 13.3899 3.685386 25.750962 -2.458615
2012-03-09 07:55:24 51°13.637 2°56.018 13.3903 3.685386 25.752818 -2.458615
2012-03-09 07:56:24 51°13.638 2°56.016 13.3722 3.686733 25.765105 -2.458615
2012-03-09 07:57:24 51°13.64 2°56.015 13.3769 3.685904 25.760543 -2.458615
2012-03-09 07:58:24 51°13.64 2°56.016 13.3847 3.68549 25.759654 -2.458615
2012-03-09 07:59:24 51°13.638 2°56.018 13.3791 3.687147 25.775282 -2.458615
2012-03-09 08:00:24 51°13.638 2°56.018 13.3841 3.68518 25.762818 -2.458615
2012-03-09 08:01:24 51°13.637 2°56.017 13.3834 3.686008 25.772027 -2.458615
2012-03-09 08:02:24 51°13.639 2°56.017 13.3731 3.686422 25.778027 -2.458615
2012-03-09 08:03:24 51°13.638 2°56.017 13.382 3.684351 25.765687 -2.458615
2012-03-09 08:04:24 51°13.638 2°56.017 13.3792 3.68518 25.775364 -2.458615
2012-03-09 08:05:24 51°13.637 2°56.017 13.3715 3.685698 25.78217 -2.458615
2012-03-09 08:06:24 51°13.636 2°56.016 13.3852 3.683626 25.769361 -2.458615
2012-03-09 08:07:24 51°13.637 2°56.018 13.3909 3.682073 25.760567 -2.458615
2012-03-09 08:08:24 51°13.637 2°56.019 13.3812 3.682384 25.766232 -2.458615
2012-03-09 08:09:24 51°13.638 2°56.018 13.3837 3.682177 25.76788 -2.458615
2012-03-09 08:10:24 51°13.637 2°56.018 13.3904 3.681038 25.762298 -2.458615
2012-03-09 08:11:24 51°13.637 2°56.019 13.3916 3.680209 25.759125 -2.458615
2012-03-09 08:12:24 51°13.638 2°56.019 13.3686 3.68052 25.764792 -2.458615
2012-03-09 08:13:24 51°13.637 2°56.018 13.3644 3.682695 25.784931 -2.458615
2012-03-09 08:14:24 51°13.637 2°56.017 13.395 3.676274 25.73835 -2.458615
2012-03-09 08:15:24 51°13.637 2°56.019 13.4041 3.675653 25.736781 -2.458615
2012-03-09 08:16:24 51°13.636 2°56.018 13.4022 3.676688 25.749008 -2.458615
2012-03-09 08:17:24 51°13.636 2°56.018 13.4109 3.673374 25.726069 -2.458615
2012-03-09 08:18:24 51°13.635 2°56.017 13.4146 3.670889 25.709561 -2.458615
2012-03-09 08:19:24 51°13.644 2°55.983 13.2763 3.668921 25.697537 -2.458615
2012-03-09 08:20:24 51°13.661 2°55.929 13.2209 3.680624 25.790284 -2.458615
2012-03-09 08:21:24 51°13.685 2°55.857 13.2772 3.678863 25.780803 -2.458615
2012-03-09 08:22:24 51°13.734 2°55.742 13.2865 3.668404 25.702345 -2.458615
2012-03-09 08:23:24 51°13.801 2°55.66 13.2884 3.67555 25.761114 -2.458615
2012-03-09 08:24:24 51°13.878 2°55.606 13.2426 3.666333 25.691835 -2.458615
2012-03-09 08:25:24 51°13.941 2°55.576 13.2683 3.670475 25.727274 -2.458615
2012-03-09 08:26:24 51°13.988 2°55.557 13.2927 3.645932 25.539434 -2.458615
2012-03-09 08:27:23 51°13.995 2°55.549 13.1894 3.677518 25.789467 -2.458615
2012-03-09 08:28:24 51°14.013 2°55.595 13.2812 3.63713 25.476643 -2.458615
2012-03-09 08:29:23 51°14.082 2°55.466 12.9346 3.667161 25.713158 -2.458615
2012-03-09 08:30:23 51°14.198 2°55.352 13.1 3.663226 25.685827 -2.458615
2012-03-09 08:31:24 51°14.317 2°55.242 13.1284 3.669854 25.740146 -2.458615
2012-03-09 08:32:23 51°14.43 2°55.136 13.1229 3.6712 25.752946 -2.458615
2012-03-09 08:33:22 51°14.553 2°55.019 13.0735 3.649557 25.587485 -2.458615
2012-03-09 08:34:20 51°14.689 2°54.866 13.0117 3.651006 25.60107 -2.458615
2012-03-09 08:35:20 51°14.849 2°54.748 12.9606 3.678761 25.819228 -2.458615
2012-03-09 08:36:20 51°15.029 2°54.711 12.9774 3.661673 25.689105 -2.458615
2012-03-09 08:37:20 51°15.206 2°54.679 12.9954 3.655045 25.640357 -2.458615
2012-03-09 08:38:20 51°15.37 2°54.609 12.9908 3.663848 25.710676 -2.458615
2012-03-09 08:39:20 51°15.474 2°54.571 13.0398 3.657531 25.664799 -2.458615
2012-03-09 08:40:20 51°15.548 2°54.505 13.0398 3.651939 25.623632 -2.458615
2012-03-09 08:41:20 51°15.619 2°54.435 13.0142 3.66333 25.715038 -2.458615
2012-03-09 08:42:20 51°15.694 2°54.368 13.0007 3.654217 25.646929 -2.458615
2012-03-09 08:43:20 51°15.773 2°54.305 13.0022 3.651939 25.63246 -2.458615
2012-03-09 08:44:20 51°15.852 2°54.241 13.0101 3.657428 25.678889 -2.458615
2012-03-09 08:45:20 51°15.928 2°54.163 13.0325 3.664055 25.733744 -2.458615
2012-03-09 08:46:20 51°15.999 2°54.071 12.9668 3.650489 25.631874 -2.458615
2012-03-09 08:47:20 51°16.072 2°53.984 12.9689 3.654528 25.667033 -2.458615
2012-03-09 08:48:20 51°16.146 2°53.907 12.9931 3.658567 25.702675 -2.458615
2012-03-09 08:49:20 51°16.22 2°53.831 13.0062 3.650904 25.646266 -2.458615
2012-03-09 08:50:20 51°16.292 2°53.75 13.0064 3.661053 25.729504 -2.458615
2012-03-09 08:51:20 51°16.355 2°53.647 13.0276 3.657946 25.709037 -2.458615
2012-03-09 08:52:20 51°16.413 2°53.531 12.9894 3.648108 25.636133 -2.458615
2012-03-09 08:53:20 51°16.479 2°53.427 13.007 3.65981 25.731972 -2.458615
2012-03-09 08:54:20 51°16.546 2°53.332 13.0229 3.654632 25.69629 -2.458615
2012-03-09 08:55:20 51°16.614 2°53.244 13.0388 3.648212 25.650452 -2.458615
2012-03-09 08:56:20 51°16.677 2°53.147 13.0301 3.649351 25.663995 -2.458615
2012-03-09 08:57:20 51°16.741 2°53.05 12.9951 3.643655 25.624263 -2.458615
2012-03-09 08:58:20 51°16.807 2°52.962 13.046 3.645623 25.644263 -2.458615
2012-03-09 08:59:20 51°16.875 2°52.88 13.0284 3.646555 25.656195 -2.458615
2012-03-09 09:00:20 51°16.94 2°52.797 13.0214 3.639721 25.607564 -2.458615
2012-03-09 09:01:20 51°17.002 2°52.709 13.0207 3.66416 25.802917 -2.458615
2012-03-09 09:02:20 51°17.065 2°52.623 13.0295 3.657636 25.75715 -2.458615
2012-03-09 09:03:20 51°17.131 2°52.549 13.0316 3.654219 25.736098 -2.458615
2012-03-09 09:04:20 51°17.2 2°52.476 13.0329 3.65774 25.769218 -2.458615
2012-03-09 09:05:20 51°17.269 2°52.395 13.0188 3.656394 25.763867 -2.458615
2012-03-09 09:06:20 51°17.335 2°52.307 13.0384 3.646659 25.692531 -2.458615
2012-03-09 09:07:20 51°17.402 2°52.218 13.0414 3.641378 25.655969 -2.458615
2012-03-09 09:08:20 51°17.473 2°52.143 13.0532 3.641792 25.663881 -2.458615
2012-03-09 09:09:20 51°17.542 2°52.063 13.0499 3.635372 25.618412 -2.458615
2012-03-09 09:10:20 51°17.607 2°51.972 13.0569 3.640654 25.663874 -2.458615
2012-03-09 09:11:20 51°17.672 2°51.882 13.0393 3.644692 25.69918 -2.458615
2012-03-09 09:12:20 51°17.741 2°51.802 13.0478 3.646349 25.716352 -2.458615
2012-03-09 09:13:20 51°17.809 2°51.721 13.0464 3.618908 25.50568 -2.458615
2012-03-09 09:14:20 51°17.876 2°51.634 13.0304 3.632266 25.613769 -2.458615
2012-03-09 09:15:20 51°17.941 2°51.541 13.0339 3.628952 25.591144 -2.458615
2012-03-09 09:16:20 51°18.009 2°51.45 13.0418 3.636512 25.653976 -2.458615
2012-03-09 09:17:20 51°18.079 2°51.366 13.055 3.621911 25.543584 -2.458615
2012-03-09 09:18:20 51°18.15 2°51.28 13.0385 3.629884 25.60918 -2.458615
2012-03-09 09:19:20 51°18.216 2°51.183 13.0574 3.622532 25.555906 -2.458615
2012-03-09 09:20:20 51°18.28 2°51.084 13.0373 3.614145 25.493607 -2.458615
2012-03-09 09:21:20 51°18.346 2°50.988 13.0698 3.638583 25.688932 -2.458615
2012-03-09 09:22:20 51°18.414 2°50.899 13.0782 3.645314 25.745373 -2.458615
2012-03-09 09:23:20 51°18.483 2°50.81 13.0694 3.622947 25.574094 -2.458615
2012-03-09 09:24:20 51°18.549 2°50.71 13.0929 3.618494 25.543002 -2.458615
2012-03-09 09:25:20 51°18.613 2°50.604 13.0721 3.61487 25.518388 -2.458615
2012-03-09 09:26:20 51°18.679 2°50.503 13.0945 3.601616 25.418459 -2.458615
2012-03-09 09:27:20 51°18.747 2°50.409 13.0951 3.616009 25.534769 -2.458615
2012-03-09 09:28:20 51°18.816 2°50.318 13.1092 3.627503 25.628479 -2.458615
2012-03-09 09:29:20 51°18.875 2°50.201 13.1106 3.62885 25.642304 -2.458615
2012-03-09 09:30:20 51°18.923 2°50.067 13.1048 3.617977 25.560919 -2.458615
2012-03-09 09:31:20 51°18.963 2°49.93 13.11 3.629161 25.651778 -2.458615
2012-03-09 09:32:20 51°19.006 2°49.801 13.123 3.618909 25.575705 -2.458615
2012-03-09 09:33:20 51°19.053 2°49.678 13.1021 3.618909 25.578983 -2.458615
2012-03-09 09:34:20 51°19.105 2°49.562 13.1042 3.614249 25.5467 -2.458615
2012-03-09 09:35:20 51°19.157 2°49.446 13.1406 3.622119 25.6121 -2.458615
2012-03-09 09:36:20 51°19.206 2°49.324 13.1425 3.622016 25.615043 -2.458615
2012-03-09 09:37:20 51°19.253 2°49.192 13.154 3.622534 25.623326 -2.458615
2012-03-09 09:38:20 51°19.301 2°49.061 13.1488 3.608761 25.519145 -2.458615
2012-03-09 09:39:20 51°19.354 2°48.936 13.158 3.6128 25.555005 -2.458615
2012-03-09 09:40:20 51°19.411 2°48.816 13.1572 3.611765 25.550637 -2.458615
2012-03-09 09:41:20 51°19.469 2°48.697 13.1638 3.610211 25.542677 -2.458615
2012-03-09 09:42:20 51°19.525 2°48.576 13.169 3.622638 25.643877 -2.458615
2012-03-09 09:43:20 51°19.576 2°48.449 13.1776 3.614768 25.585906 -2.458615
2012-03-09 09:44:20 51°19.625 2°48.317 13.1488 3.59644 25.445943 -2.458615
2012-03-09 09:45:20 51°19.678 2°48.189 13.1662 3.620463 25.638106 -2.458615
2012-03-09 09:46:20 51°19.735 2°48.073 13.1796 3.611351 25.570365 -2.458615
2012-03-09 09:47:20 51°19.788 2°47.95 13.6554 3.622741 25.66305 -2.458615
2012-03-09 09:48:20 51°19.834 2°47.819 13.175 3.611144 25.575313 -2.458615
2012-03-09 09:49:20 51°19.878 2°47.684 13.1971 3.616321 25.619241 -2.458615
2012-03-09 09:50:20 51°19.925 2°47.551 13.2118 3.611144 25.581889 -2.458615
2012-03-09 09:51:20 51°19.973 2°47.42 13.2265 3.611558 25.588901 -2.458615
2012-03-09 09:52:20 51°20.019 2°47.286 13.2809 3.59002 25.423151 -2.458615
2012-03-09 09:53:20 51°20.062 2°47.149 13.2826 3.604621 25.541009 -2.458615
2012-03-09 09:54:20 51°20.115 2°47.026 12.1278 3.621292 25.675241 -2.458615
2012-03-09 09:55:20 51°20.182 2°46.943 12.5976 3.603378 25.538293 -2.458615
2012-03-09 09:56:20 51°20.253 2°46.911 12.6831 3.615286 25.635125 -2.458615
2012-03-09 09:57:20 51°20.31 2°46.946 12.7378 3.606485 25.570209 -2.458615
2012-03-09 09:58:20 51°20.33 2°47.032 12.8187 3.594266 25.477993 -2.458615
2012-03-09 09:59:20 51°20.341 2°47.136 12.8104 3.606692 25.578892 -2.458615
2012-03-09 10:00:20 51°20.356 2°47.258 12.854 3.608245 25.594394 -2.458615
2012-03-09 10:01:20 51°20.358 2°47.388 12.8968 3.605035 25.57293 -2.458615
2012-03-09 10:02:20 51°20.345 2°47.522 12.9005 3.597684 25.51844 -2.458615
2012-03-09 10:03:20 51°20.334 2°47.657 12.9408 3.598926 25.531025 -2.458615
2012-03-09 10:04:20 51°20.329 2°47.794 12.9413 3.594888 25.502572 -2.458615
2012-03-09 10:05:20 51°20.329 2°47.931 12.9595 3.61042 25.627518 -2.458615
2012-03-09 10:06:20 51°20.326 2°48.068 13.007 3.596131 25.518446 -2.458615
2012-03-09 10:07:20 51°20.32 2°48.207 13.0034 3.600687 25.557092 -2.458615
2012-03-09 10:08:20 51°20.314 2°48.347 12.9666 3.601308 25.564803 -2.458615
2012-03-09 10:09:20 51°20.308 2°48.486 13.0116 3.589504 25.475266 -2.458615
2012-03-09 10:10:20 51°20.307 2°48.626 13.0128 3.598098 25.545674 -2.458615
2012-03-09 10:11:20 51°20.306 2°48.766 13.0729 3.583809 25.436586 -2.458615
2012-03-09 10:12:20 51°20.301 2°48.908 13.0479 3.592196 25.505832 -2.458615
2012-03-09 10:13:20 51°20.292 2°49.05 13.0554 3.595717 25.536822 -2.458615
2012-03-09 10:14:20 51°20.289 2°49.191 13.0923 3.596959 25.549425 -2.458615
2012-03-09 10:15:20 51°20.291 2°49.334 13.0883 3.590747 25.50336 -2.458615
2012-03-09 10:16:20 51°20.288 2°49.476 13.0775 3.601309 25.589787 -2.458615
2012-03-09 10:17:20 51°20.28 2°49.62 13.0709 3.59727 25.560824 -2.458615
2012-03-09 10:18:20 51°20.277 2°49.764 13.0817 3.595096 25.546533 -2.458615
2012-03-09 10:19:20 51°20.277 2°49.909 13.1037 3.583395 25.456785 -2.458615
2012-03-09 10:20:20 51°20.273 2°50.053 13.1025 3.59199 25.527258 -2.458615
2012-03-09 10:21:20 51°20.266 2°50.2 13.1362 3.581325 25.446591 -2.458615
2012-03-09 10:22:20 51°20.267 2°50.346 13.1336 3.591058 25.525572 -2.458615
2012-03-09 10:23:20 51°20.279 2°50.491 13.1407 3.587123 25.497413 -2.458615
2012-03-09 10:24:20 51°20.294 2°50.636 13.1516 3.593129 25.547539 -2.458615
2012-03-09 10:25:20 51°20.304 2°50.784 13.1526 3.588159 25.511217 -2.458615
2012-03-09 10:26:20 51°20.306 2°50.936 5.1555 3.578552 33.720072 -2.458615
2012-03-09 10:27:20 51°20.346 2°51.054 5.0101 2.964008 30.015661 -2.458615
2012-03-09 10:28:20 51°20.43 2°51.076 5.0055 2.834548 28.773632 -2.458615
2012-03-09 10:29:20 51°20.524 2°51.053 4.9874 2.788129 28.307435 -2.458615
2012-03-09 10:30:20 51°20.618 2°51.037 4.994 2.772002 28.146487 -2.458615
2012-03-09 10:31:20 51°20.711 2°51.033 4.9776 2.757012 28.00461 -2.458615
2012-03-09 10:32:20 51°20.804 2°51.029 4.9702 2.320038 23.181871 -2.458615
2012-03-09 10:33:20 51°20.899 2°51.01 4.9683 2.218832 22.083676 -2.458615
2012-03-09 10:34:20 51°20.993 2°50.988 4.9755 2.355362 23.582326 -2.458615
2012-03-09 10:35:20 51°21.089 2°50.972 4.9605 2.955945 30.277176 -2.458615
2012-03-09 10:36:20 51°21.185 2°50.968 4.9581 2.955945 30.291981 -2.458615
2012-03-09 10:37:20 51°21.282 2°50.962 4.9449 2.957289 30.319402 -2.458615
2012-03-09 10:38:20 51°21.38 2°50.944 4.93 2.959978 30.360325 -2.458615
2012-03-09 10:39:20 51°21.475 2°50.921 4.8995 2.967838 30.459877 -2.458615
2012-03-09 10:40:20 51°21.569 2°50.908 4.8835 2.981283 30.644073 -2.458615
2012-03-09 10:41:20 51°21.663 2°50.908 4.8651 3.001761 30.896265 -2.458615
2012-03-09 10:42:20 51°21.756 2°50.9 4.8415 3.011277 31.026872 -2.458615
2012-03-09 10:43:20 51°21.852 2°50.88 4.8287 2.884491 29.608406 -2.458615
2012-03-09 10:44:20 51°21.948 2°50.866 4.8221 2.885835 29.635613 -2.458615
2012-03-09 10:45:20 51°22.043 2°50.865 4.8221 2.888317 29.667156 -2.458615
2012-03-09 10:46:20 51°22.138 2°50.862 4.8254 2.890488 29.689186 -2.458615
2012-03-09 10:47:20 51°22.233 2°50.845 4.8208 2.891316 29.700277 -2.458615
2012-03-09 10:48:20 51°22.328 2°50.828 4.8268 2.891316 29.702852 -2.458615
2012-03-09 10:49:20 51°22.425 2°50.821 4.8176 2.892557 29.719492 -2.458615
2012-03-09 10:50:20 51°22.521 2°50.82 4.8234 2.89328 29.731135 -2.458615
2012-03-09 10:51:20 51°22.618 2°50.816 4.8217 2.89266 29.721524 -2.458615
2012-03-09 10:52:20 51°22.712 2°50.813 4.8307 2.89266 29.718946 -2.458615
2012-03-09 10:53:20 51°22.802 2°50.81 4.8291 2.894004 29.731603 -2.458615
2012-03-09 10:54:20 51°22.891 2°50.807 4.8364 2.906102 29.869626 -2.458615
2012-03-09 10:55:20 51°22.978 2°50.816 4.8264 2.913031 29.946479 -2.458615
2012-03-09 10:56:20 51°23.064 2°50.832 4.8427 2.920269 30.009523 -2.458615
2012-03-09 10:57:20 51°23.132 2°50.899 4.8376 2.924198 30.042808 -2.458615
2012-03-09 10:58:20 51°23.158 2°51.034 4.8335 2.924198 30.044544 -2.458615
2012-03-09 10:59:20 51°23.178 2°51.182 4.8368 2.924095 30.048577 -2.458615
2012-03-09 11:00:20 51°23.204 2°51.329 4.8371 2.920166 30.00575 -2.458615
2012-03-09 11:01:20 51°23.224 2°51.481 4.8285 2.919235 29.99433 -2.458615
2012-03-09 11:02:20 51°23.22 2°51.641 4.8309 2.919132 29.996623 -2.458615
2012-03-09 11:03:20 51°23.212 2°51.803 4.8249 2.917994 29.982858 -2.458615
2012-03-09 11:04:20 51°23.191 2°51.96 4.8343 2.91727 29.976382 -2.458615
2012-03-09 11:05:20 51°23.158 2°52.114 4.8326 2.91634 29.963233 -2.458615
2012-03-09 11:06:20 51°23.125 2°52.271 4.8309 2.915616 29.956756 -2.458615
2012-03-09 11:07:20 51°23.081 2°52.418 4.826 2.914995 29.952318 -2.458615
2012-03-09 11:08:20 51°23.016 2°52.538 4.8235 2.809221 28.757734 -2.458615
2012-03-09 11:09:20 51°22.93 2°52.585 4.8185 2.803121 28.690594 -2.458615
2012-03-09 11:10:20 51°22.852 2°52.543 4.8151 2.795264 28.607784 -2.458615
2012-03-09 11:11:20 51°22.802 2°52.44 4.813 2.791646 28.571941 -2.458615
2012-03-09 11:12:20 51°22.743 2°52.329 4.8093 2.78534 28.503315 -2.458615
2012-03-09 11:13:20 51°22.677 2°52.217 4.8107 2.781618 28.462187 -2.458615
2012-03-09 11:14:20 51°22.618 2°52.102 4.8106 2.778517 28.427232 -2.458615
2012-03-09 11:15:20 51°22.566 2°51.982 4.819 2.775002 28.389265 -2.458615
2012-03-09 11:16:20 51°22.51 2°51.868 4.8133 2.765491 28.278034 -2.458615
2012-03-09 11:17:20 51°22.45 2°51.76 4.8161 2.760839 28.2281 -2.458615
2012-03-09 11:18:20 51°22.394 2°51.648 4.8152 2.756498 28.177589 -2.458615
2012-03-09 11:19:20 51°22.353 2°51.523 4.8261 2.751019 28.115112 -2.458615
2012-03-09 11:20:20 51°22.313 2°51.397 4.8246 2.728897 27.855042 -2.458615
2012-03-09 11:21:20 51°22.274 2°51.272 4.8123 2.724556 27.813495 -2.458615
2012-03-09 11:22:20 51°22.249 2°51.138 4.821 2.724969 27.825376 -2.458615
2012-03-09 11:23:20 51°22.226 2°51.006 4.8505 2.721765 27.776518 -2.458615
2012-03-09 11:24:20 51°22.191 2°50.881 4.8433 2.717113 27.706669 -2.458615
2012-03-09 11:25:20 51°22.136 2°50.778 4.8204 2.712255 27.66253 -2.458615
2012-03-09 11:26:20 51°22.069 2°50.694 4.8285 2.710395 27.656022 -2.458615
2012-03-09 11:27:20 51°22.005 2°50.606 4.8507 2.711118 27.649768 -2.458615
2012-03-09 11:28:20 51°21.944 2°50.514 4.8585 2.699748 27.510271 -2.458615
2012-03-09 11:29:20 51°21.886 2°50.417 4.86 2.690756 27.404717 -2.458615
2012-03-09 11:30:20 51°21.832 2°50.318 4.8709 2.689722 27.390764 -2.458615
2012-03-09 11:31:20 51°21.774 2°50.223 4.8781 2.685278 27.332297 -2.458615
2012-03-09 11:32:20 51°21.71 2°50.136 4.8838 2.684451 27.319098 -2.458615
2012-03-09 11:33:20 51°21.647 2°50.048 4.8607 2.68104 27.277767 -2.458615
2012-03-09 11:34:20 51°21.591 2°49.951 4.8751 2.685898 27.346341 -2.458615
2012-03-09 11:35:20 51°21.537 2°49.852 4.8808 2.68011 27.2705 -2.458615
2012-03-09 11:36:20 51°21.479 2°49.762 4.8842 2.678973 27.252273 -2.458615
2012-03-09 11:37:20 51°21.417 2°49.68 4.9016 2.677009 27.225588 -2.458615
2012-03-09 11:38:20 51°21.357 2°49.597 4.9063 2.67029 27.138705 -2.458615
2012-03-09 11:39:20 51°21.306 2°49.506 4.9155 2.677525 27.216464 -2.458615
2012-03-09 11:40:20 51°21.254 2°49.42 4.9144 2.674735 27.17978 -2.458615
2012-03-09 11:41:20 51°21.196 2°49.339 4.9175 2.66936 27.121273 -2.458615
2012-03-09 11:42:20 51°21.146 2°49.253 4.9125 2.667086 27.092742 -2.458615
2012-03-09 11:43:20 51°21.097 2°49.163 4.9055 2.660678 27.02349 -2.458615
2012-03-09 11:44:20 51°21.043 2°49.08 4.9149 2.627606 26.658202 -2.458615
2012-03-09 11:45:20 51°20.99 2°49 4.9495 2.613861 26.502659 -2.458615
2012-03-09 11:46:20 51°20.942 2°48.911 4.9586 2.606317 26.389716 -2.458615
2012-03-09 11:47:20 51°20.894 2°48.806 4.954 2.579242 26.083369 -2.458615
2012-03-09 11:48:20 51°20.842 2°48.701 4.9596 2.570458 25.983556 -2.458615
2012-03-09 11:49:20 51°20.784 2°48.603 4.9467 2.560022 25.866944 -2.458615
2012-03-09 11:50:20 51°20.726 2°48.504 4.938 2.572732 26.021525 -2.458615
2012-03-09 11:51:20 51°20.675 2°48.396 4.9539 2.578622 26.086984 -2.458615
2012-03-09 11:52:20 51°20.622 2°48.29 4.9518 2.551342 25.772111 -2.458615
2012-03-09 11:53:20 51°20.567 2°48.189 4.9599 2.546795 25.723155 -2.458615
2012-03-09 11:54:20 51°20.511 2°48.092 4.9701 2.554338 25.800166 -2.458615
2012-03-09 11:55:20 51°20.459 2°47.991 4.9716 2.545039 25.694065 -2.458615
2012-03-09 11:56:20 51°20.412 2°47.88 5.0009 2.540182 25.635804 -2.458615
2012-03-09 11:57:20 51°20.362 2°47.776 5.0052 2.533982 25.548748 -2.458615
2012-03-09 11:58:20 51°20.305 2°47.682 5.0027 2.519207 25.380124 -2.458615
2012-03-09 11:59:20 51°20.252 2°47.585 5.0068 2.51869 25.375867 -2.458615
2012-03-09 12:00:20 51°20.182 2°47.524 5.028 2.523443 25.424066 -2.458615
2012-03-09 12:01:20 51°20.097 2°47.517 5.0388 2.51466 25.315309 -2.458615
2012-03-09 12:02:20 51°20.007 2°47.553 5.0175 2.51838 25.353511 -2.458615
2012-03-09 12:03:20 51°19.922 2°47.629 5.0048 2.494616 25.100381 -2.458615
2012-03-09 12:04:20 51°19.844 2°47.749 4.9939 2.501332 25.183955 -2.458615
2012-03-09 12:05:20 51°19.78 2°47.879 5.0172 2.500609 25.183917 -2.458615
2012-03-09 12:06:20 51°19.72 2°47.998 5.0213 2.48697 25.014531 -2.458615
2012-03-09 12:07:20 51°19.659 2°48.106 5.01 2.481288 24.946805 -2.458615
2012-03-09 12:08:20 51°19.596 2°48.211 4.9837 2.477879 24.922781 -2.458615
2012-03-09 12:09:20 51°19.535 2°48.325 4.9923 2.490277 25.075498 -2.458615
2012-03-09 12:10:20 51°19.476 2°48.447 4.9874 2.4723 24.871927 -2.458615
2012-03-09 12:11:20 51°19.415 2°48.566 5.0018 2.460935 24.743675 -2.458615
2012-03-09 12:12:20 51°19.355 2°48.674 5.0045 2.457216 24.697688 -2.458615
2012-03-09 12:13:20 51°19.297 2°48.777 4.9849 2.467134 24.807075 -2.458615
2012-03-09 12:14:20 51°19.241 2°48.886 4.9891 2.463932 24.780996 -2.458615
2012-03-09 12:15:20 51°19.188 2°49.005 4.9894 2.451638 24.6468 -2.458615
2012-03-09 12:16:20 51°19.137 2°49.131 4.9938 2.439447 24.508887 -2.458615
2012-03-09 12:17:20 51°19.085 2°49.256 4.9871 2.4536 24.663488 -2.458615
2012-03-09 12:18:20 51°19.029 2°49.375 4.9689 2.442133 24.544832 -2.458615
2012-03-09 12:19:20 51°18.974 2°49.498 4.9722 2.435315 24.478826 -2.458615
2012-03-09 12:20:20 51°18.92 2°49.628 4.9625 2.420749 24.319011 -2.458615
2012-03-09 12:21:20 51°18.866 2°49.759 4.9699 2.415171 24.256872 -2.458615
2012-03-09 12:22:20 51°18.81 2°49.885 4.9782 2.447195 24.607006 -2.458615
2012-03-09 12:23:20 51°18.752 2°50.006 4.9962 2.420232 24.304938 -2.458615
2012-03-09 12:24:20 51°18.696 2°50.127 5.04 2.415893 24.237668 -2.458615
2012-03-09 12:25:20 51°18.642 2°50.254 5.0424 2.43986 24.477587 -2.458615
2012-03-09 12:26:20 51°18.596 2°50.387 5.1007 2.431079 24.371902 -2.458615
2012-03-09 12:27:20 51°18.557 2°50.511 5.1519 2.427049 24.280983 -2.458615
2012-03-09 12:28:20 51°18.52 2°50.627 5.1853 2.41114 24.081725 -2.458615
2012-03-09 12:29:20 51°18.484 2°50.736 5.2109 2.433041 24.296692 -2.458615
2012-03-09 12:30:20 51°18.446 2°50.852 5.2335 2.416202 24.092421 -2.458615
2012-03-09 12:31:20 51°18.407 2°50.98 5.2445 2.417855 24.104994 -2.458615
2012-03-09 12:32:20 51°18.365 2°51.096 5.1369 2.424672 24.176092 -2.458615
2012-03-09 12:33:20 51°18.318 2°51.198 5.0426 2.411967 24.113513 -2.458615
2012-03-09 12:34:20 51°18.272 2°51.308 5.0326 2.422195 24.283298 -2.458615
2012-03-09 12:35:20 51°18.228 2°51.423 5.0381 2.391928 23.954947 -2.458615
2012-03-09 12:36:20 51°18.176 2°51.508 5.0346 2.423744 24.300334 -2.458615
2012-03-09 12:37:20 51°18.122 2°51.553 5.0291 2.390791 23.941787 -2.458615
2012-03-09 12:38:20 51°18.071 2°51.561 5.04 2.412794 24.185529 -2.458615
2012-03-09 12:39:20 51°18.027 2°51.534 5.0614 2.44079 24.485712 -2.458615
2012-03-09 12:40:20 51°17.995 2°51.481 5.098 2.372198 23.718066 -2.458615
2012-03-09 12:41:20 51°17.971 2°51.378 5.1108 2.412071 24.133283 -2.458615
2012-03-09 12:42:20 51°17.95 2°51.253 5.1295 2.440376 24.430732 -2.458615
2012-03-09 12:43:20 51°17.93 2°51.125 5.1651 2.389861 23.862468 -2.458615
2012-03-09 12:44:20 51°17.914 2°50.994 5.1793 2.411554 24.077307 -2.458615
2012-03-09 12:45:20 51°17.905 2°50.86 5.1965 2.416925 24.128537 -2.458615
2012-03-09 12:46:20 51°17.893 2°50.725 5.1938 2.408661 24.025062 -2.458615
2012-03-09 12:47:20 51°17.88 2°50.591 5.2153 2.413723 24.081798 -2.458615
2012-03-09 12:48:20 51°17.863 2°50.457 5.2452 2.418991 24.123605 -2.458615
2012-03-09 12:49:20 51°17.861 2°50.318 5.2675 2.408557 23.987658 -2.458615
2012-03-09 12:50:20 51°17.88 2°50.173 5.2979 2.395851 23.831997 -2.458615
2012-03-09 12:51:20 51°17.895 2°50.031 5.3493 2.379737 23.625428 -2.458615
2012-03-09 12:52:20 51°17.911 2°49.888 5.321 2.38862 23.705263 -2.458615
2012-03-09 12:53:20 51°17.931 2°49.743 5.2929 2.39833 23.829865 -2.458615
2012-03-09 12:54:20 51°17.969 2°49.601 5.284 2.403289 23.902226 -2.458615
2012-03-09 12:55:20 51°18.041 2°49.495 5.2502 2.393269 23.79842 -2.458615
2012-03-09 12:56:20 51°18.121 2°49.416 5.1882 2.420644 24.12517 -2.458615
2012-03-09 12:57:20 51°18.193 2°49.333 5.0826 2.425086 24.223422 -2.458615
2012-03-09 12:58:20 51°18.265 2°49.249 5.0175 2.421885 24.256937 -2.458615
2012-03-09 12:59:20 51°18.336 2°49.167 5.0314 2.423331 24.317409 -2.458615
2012-03-09 13:00:20 51°18.415 2°49.097 5.067 2.434591 24.437142 -2.458615
2012-03-09 13:01:20 51°18.502 2°49.04 5.0981 2.396163 23.991124 -2.458615
2012-03-09 13:02:20 51°18.595 2°48.998 5.1241 2.423951 24.276848 -2.458615
2012-03-09 13:03:20 51°18.693 2°48.967 5.1387 2.398848 23.988285 -2.458615
2012-03-09 13:04:20 51°18.79 2°48.936 5.0994 2.389138 23.872301 -2.458615
2012-03-09 13:05:20 51°18.882 2°48.898 5.2604 2.382113 23.747145 -2.458615
2012-03-09 13:06:20 51°18.974 2°48.858 5.1643 2.407111 23.988269 -2.458615
2012-03-09 13:07:20 51°19.07 2°48.822 5.0745 2.408042 24.086335 -2.458615
2012-03-09 13:08:20 51°19.17 2°48.793 5.073 2.388209 23.898363 -2.458615
2012-03-09 13:09:20 51°19.267 2°48.756 5.0753 2.38511 23.868481 -2.458615
2012-03-09 13:10:20 51°19.356 2°48.706 5.0491 2.379325 23.807089 -2.458615
2012-03-09 13:11:20 51°19.451 2°48.663 5.0207 2.382631 23.861812 -2.458615
2012-03-09 13:12:20 51°19.556 2°48.637 5.0413 2.388003 23.933828 -2.458615
2012-03-09 13:13:20 51°19.659 2°48.6 5.0831 2.368583 23.706309 -2.458615
2012-03-09 13:14:20 51°19.76 2°48.557 5.12 2.382321 23.824916 -2.458615
2012-03-09 13:15:20 51°19.868 2°48.533 5.1334 2.394406 23.937542 -2.458615
2012-03-09 13:16:20 51°19.977 2°48.54 5.1304 2.382424 23.796734 -2.458615
2012-03-09 13:17:20 51°20.079 2°48.554 5.132 2.421884 24.234722 -2.458615
2012-03-09 13:18:20 51°20.19 2°48.588 5.1185 2.366207 23.62468 -2.458615
2012-03-09 13:19:20 51°20.305 2°48.668 5.0857 2.386866 23.860385 -2.458615
2012-03-09 13:20:20 51°20.406 2°48.801 5.0691 2.395646 23.974459 -2.458615
2012-03-09 13:21:20 51°20.485 2°48.974 5.064 2.376123 23.772659 -2.458615
2012-03-09 13:22:20 51°20.537 2°49.169 5.085 2.387692 23.898178 -2.458615
2012-03-09 13:23:20 51°20.559 2°49.369 5.1006 2.377673 23.777378 -2.458615
2012-03-09 13:24:20 51°20.549 2°49.552 5.1248 2.382114 23.811055 -2.458615
2012-03-09 13:25:20 51°20.507 2°49.683 5.1193 2.375607 23.733657 -2.458615
2012-03-09 13:26:20 51°20.452 2°49.76 5.1234 2.379635 23.773686 -2.458615
2012-03-09 13:27:20 51°20.379 2°49.833 5.1178 2.376639 23.742248 -2.458615
2012-03-09 13:28:20 51°20.293 2°49.894 5.1022 2.355981 23.520909 -2.458615
2012-03-09 13:29:20 51°20.205 2°49.951 5.0908 2.341727 23.371742 -2.458615
2012-03-09 13:30:20 51°20.115 2°50.047 5.0059 2.349268 23.481096 -2.458615
2012-03-09 13:31:20 51°20.006 2°50.19 4.997 2.36817 23.73242 -2.458615
2012-03-09 13:32:20 51°19.839 2°50.351 5.0014 2.360114 23.644641 -2.458615
2012-03-09 13:33:20 51°19.662 2°50.499 5.0028 2.366001 23.710644 -2.458615
2012-03-09 13:34:20 51°19.493 2°50.682 5.0055 2.37757 23.841837 -2.458615
2012-03-09 13:35:20 51°19.32 2°50.848 4.999 2.366931 23.716083 -2.458615
2012-03-09 13:36:20 51°19.141 2°50.988 4.998 2.364762 23.696352 -2.458615
2012-03-09 13:37:20 51°18.964 2°51.132 5.019 2.362592 23.665736 -2.458615
2012-03-09 13:38:20 51°18.794 2°51.299 5.0588 2.353193 23.555827 -2.458615
2012-03-09 13:39:20 51°18.62 2°51.447 5.2321 2.346272 23.419425 -2.458615
2012-03-09 13:40:20 51°18.445 2°51.575 5.3491 2.334083 23.179356 -2.458615
2012-03-09 13:41:20 51°18.271 2°51.722 5.3426 2.381183 23.641835 -2.458615
2012-03-09 13:42:20 51°18.093 2°51.859 5.4182 2.350298 23.297425 -2.458615
2012-03-09 13:43:20 51°17.91 2°51.953 5.5564 2.382112 23.575568 -2.458615
2012-03-09 13:44:20 51°17.735 2°52.083 5.8466 2.343687 23.106844 -2.458615
2012-03-09 13:45:20 51°17.556 2°52.192 5.9516 2.273147 22.348279 -2.458615
2012-03-09 13:46:20 51°17.376 2°52.295 6.0717 2.195595 21.516684 -2.458615
2012-03-09 13:47:20 51°17.201 2°52.423 6.1808 2.710596 27.118979 -2.458615
2012-03-09 13:48:20 51°17.025 2°52.563 6.2433 2.672766 26.70287 -2.458615
2012-03-09 13:49:20 51°16.846 2°52.69 6.3124 2.693024 26.919513 -2.458615
2012-03-09 13:50:20 51°16.671 2°52.839 6.3703 2.759593 27.636422 -2.458615
2012-03-09 13:51:20 51°16.491 2°52.968 6.4736 2.736747 27.342151 -2.458615
2012-03-09 13:52:20 51°16.315 2°53.113 6.584 2.72765 27.189986 -2.458615
2012-03-09 13:53:20 51°16.139 2°53.254 6.6624 2.726822 27.135091 -2.458615
2012-03-09 13:54:20 51°15.962 2°53.387 6.7307 2.74057 27.248978 -2.458615
2012-03-09 13:55:20 51°15.785 2°53.531 6.8619 2.727028 27.063612 -2.458615
2012-03-09 13:56:20 51°15.618 2°53.713 6.9597 2.774166 27.543609 -2.458615
2012-03-09 13:57:20 51°15.459 2°53.912 7.0621 2.735814 27.095101 -2.458615
2012-03-09 13:58:20 51°15.302 2°54.112 7.1258 2.761863 27.347944 -2.458615
2012-03-09 13:59:20 51°15.143 2°54.309 7.1638 2.822238 27.97363 -2.458615
2012-03-09 14:00:20 51°14.98 2°54.498 7.2943 2.813656 27.849653 -2.458615
2012-03-09 14:01:20 51°14.826 2°54.71 7.3186 2.822444 27.922971 -2.458615
2012-03-09 14:02:20 51°14.669 2°54.917 7.3409 2.760518 27.21258 -2.458615
2012-03-09 14:03:20 51°14.502 2°55.083 7.4749 2.724131 26.788239 -2.458615
2012-03-09 14:04:21 51°14.352 2°55.23 7.5722 2.769098 27.242189 -2.458615
2012-03-09 14:05:24 51°14.245 2°55.326 7.6804 2.828232 27.855192 -2.458615
2012-03-09 14:06:22 51°14.151 2°55.4 7.7545 2.849117 28.050935 -2.458615
2012-03-09 14:07:24 51°14.038 2°55.483 7.8159 2.825336 27.76769 -2.458615
2012-03-09 14:08:23 51°13.932 2°55.557 7.863 2.791529 27.367867 -2.458615
2012-03-09 14:09:22 51°13.848 2°55.624 7.9542 2.855423 28.032627 -2.458615
2012-03-09 14:10:22 51°13.764 2°55.707 8.06 2.869794 28.159518 -2.458615
2012-03-09 14:11:23 51°13.703 2°55.812 8.1498 2.862039 28.044003 -2.458615
2012-03-09 14:12:24 51°13.661 2°55.912 8.225 2.866899 28.069507 -2.458615
2012-03-09 14:13:24 51°13.642 2°55.992 8.3101 2.850252 27.863885 -2.458615
2012-03-09 14:14:24 51°13.639 2°56.012 8.3573 2.887267 28.232143 -2.458615
2012-03-09 14:15:24 51°13.637 2°56.019 8.4777 2.880546 28.132712 -2.458615
2012-03-09 14:16:24 51°13.638 2°56.017 8.5428 2.880339 28.105108 -2.458615